Airfield :
LOGIN :

Register | Disclaimer

   EN    FR    IT 

 










Legend :    VFR   Marginal VFR   IFR   Intensive IFR   Very Intensive IFR
Visi :
Ceiling :
>= 8 km
>= 3000ft
5 to 8 km
1000 to 3000 ft
1500m to 5 km
500 to 1000 ft
800 to 1500m
200 to 500 ft
< 800m
< 200 ft
Symbols :   Thunderstorms  Fog  Heavy snow  Heavy precipitations  Wind > 20 kt
SIGMETs :     Misc.  Thunderstorms  Icing  Turbulence  Mountain Waves  Volcanic Ashes







- Airport Elevation : -11 ft
- IATA code : AMS


EHAM - Amsterdam Schiphol

CURRENT METAR :
  • 181555Z 27014KT 9999 FEW020 SCT035 05/02 Q1000 NOSIG

EXPIRED METARs :
  • 181525Z 28015KT 250V310 9999 FEW020 SCT035 05/02 Q1000 NOSIG
  • 181455Z 28015KT 9999 VCSH FEW012 FEW020TCU SCT035 05/03 Q0999 NOSIG
  • 181425Z 27016KT 9999 VCSH FEW012 FEW018CB SCT035 05/03 Q0999 NOSIG
  • 181355Z 29015KT 260V320 9999 -SHRA FEW012 FEW018CB SCT025 04/03 Q0999 TEMPO 6000
  • 181325Z 30016G27KT 260V340 9999 VCSH FEW012 FEW018CB SCT025 05/03 Q0998 TEMPO 5000 -SHRA
  • 181255Z 29021KT 260V320 9999 4800NW -SHRA FEW013 FEW018CB SCT025 05/03 Q0997 TEMPO 5000

TAF TAF EHAM
Valid from the 18 at 12:00 until the 19 at 18:00 UTC


181117Z 1812/1918 29029G43KT 9999 SCT020 BKN035
BECMG 1812/1815 28020G30KT
TEMPO 1812/1815 7000 -SHRA FEW018CB BKN025
BECMG 1815/1818 28012KT
TEMPO 1815/1906 28020G30KT 6000 SHRA SHRAGS SCT015CB BKN020
BECMG 1906/1909 25012KT
PROB30
TEMPO 1906/1912 7000 -SHRA FEW020CB
TEMPO 1912/1918 27020G30KT 6000 SHRA SHRAGS SCT015CB BKN020
No reported NOTAMs for that airfield.



MET'MAP, your aeronautical weather chart ! - Copyright ORBIFLY December 2007 - Disclaimer

ORBIFLY MET'MAP TEAM :

Programming & Development : Alexandra Zaïnal
Concept & Development : Baudouin d'Aumeries
Co-Development & Prog : Marc-Olivier Méhu
Technical & hardware support : Manuel Goepfert

Contact : metmap@orbifly.com




SOURCES & CREDITS :

   NOAA